sensor_id;sensor_type;location;lat;lon;timestamp;P1;durP1;ratioP1;P2;durP2;ratioP2
15114;SDS011;7658;51.456;7.622;2023-04-08T00:00:10;61.43;;;19.63;;
15114;SDS011;7658;51.456;7.622;2023-04-08T00:02:37;32.80;;;18.87;;
15114;SDS011;7658;51.456;7.622;2023-04-08T00:05:02;51.77;;;19.30;;
15114;SDS011;7658;51.456;7.622;2023-04-08T00:07:28;33.50;;;18.97;;
15114;SDS011;7658;51.456;7.622;2023-04-08T00:09:54;37.97;;;18.27;;
15114;SDS011;7658;51.456;7.622;2023-04-08T00:12:20;42.90;;;19.20;;
15114;SDS011;7658;51.456;7.622;2023-04-08T00:14:46;33.37;;;19.03;;
15114;SDS011;7658;51.456;7.622;2023-04-08T00:17:12;48.07;;;20.60;;
15114;SDS011;7658;51.456;7.622;2023-04-08T00:19:37;33.50;;;19.40;;
15114;SDS011;7658;51.456;7.622;2023-04-08T00:22:03;67.93;;;19.37;;
15114;SDS011;7658;51.456;7.622;2023-04-08T00:24:29;55.53;;;19.60;;
15114;SDS011;7658;51.456;7.622;2023-04-08T00:26:56;44.47;;;18.87;;
15114;SDS011;7658;51.456;7.622;2023-04-08T00:29:22;44.70;;;19.27;;
15114;SDS011;7658;51.456;7.622;2023-04-08T00:31:48;36.33;;;20.13;;
15114;SDS011;7658;51.456;7.622;2023-04-08T00:34:13;37.23;;;19.77;;
15114;SDS011;7658;51.456;7.622;2023-04-08T00:36:39;62.80;;;21.17;;
15114;SDS011;7658;51.456;7.622;2023-04-08T00:39:05;72.33;;;20.60;;
15114;SDS011;7658;51.456;7.622;2023-04-08T00:41:32;92.07;;;22.70;;
15114;SDS011;7658;51.456;7.622;2023-04-08T00:43:59;43.03;;;19.00;;
15114;SDS011;7658;51.456;7.622;2023-04-08T00:46:25;42.53;;;20.27;;
15114;SDS011;7658;51.456;7.622;2023-04-08T00:48:51;51.83;;;19.70;;
15114;SDS011;7658;51.456;7.622;2023-04-08T00:51:18;49.33;;;18.87;;
15114;SDS011;7658;51.456;7.622;2023-04-08T00:53:44;48.20;;;20.67;;
15114;SDS011;7658;51.456;7.622;2023-04-08T00:56:10;35.97;;;18.20;;
15114;SDS011;7658;51.456;7.622;2023-04-08T00:58:36;57.57;;;21.97;;
15114;SDS011;7658;51.456;7.622;2023-04-08T01:01:04;52.67;;;20.80;;
15114;SDS011;7658;51.456;7.622;2023-04-08T01:06:56;63.97;;;21.70;;
15114;SDS011;7658;51.456;7.622;2023-04-08T01:09:45;42.50;;;20.00;;
15114;SDS011;7658;51.456;7.622;2023-04-08T01:12:25;43.60;;;20.33;;
15114;SDS011;7658;51.456;7.622;2023-04-08T01:15:00;50.13;;;20.23;;
15114;SDS011;7658;51.456;7.622;2023-04-08T01:17:29;40.90;;;19.27;;
15114;SDS011;7658;51.456;7.622;2023-04-08T01:19:56;39.80;;;21.33;;
15114;SDS011;7658;51.456;7.622;2023-04-08T01:25:20;34.57;;;19.77;;
15114;SDS011;7658;51.456;7.622;2023-04-08T01:27:48;44.57;;;19.53;;
15114;SDS011;7658;51.456;7.622;2023-04-08T01:30:16;38.63;;;19.90;;
15114;SDS011;7658;51.456;7.622;2023-04-08T01:32:45;32.43;;;19.73;;
15114;SDS011;7658;51.456;7.622;2023-04-08T01:35:12;41.20;;;21.03;;
15114;SDS011;7658;51.456;7.622;2023-04-08T01:37:40;43.23;;;20.93;;
15114;SDS011;7658;51.456;7.622;2023-04-08T01:40:07;37.67;;;20.60;;
15114;SDS011;7658;51.456;7.622;2023-04-08T01:42:34;32.17;;;20.73;;
15114;SDS011;7658;51.456;7.622;2023-04-08T01:45:02;65.83;;;22.50;;
15114;SDS011;7658;51.456;7.622;2023-04-08T01:47:29;27.73;;;19.80;;
15114;SDS011;7658;51.456;7.622;2023-04-08T01:49:56;27.00;;;18.27;;
15114;SDS011;7658;51.456;7.622;2023-04-08T01:52:24;31.87;;;19.50;;
15114;SDS011;7658;51.456;7.622;2023-04-08T01:54:50;34.80;;;19.67;;
15114;SDS011;7658;51.456;7.622;2023-04-08T01:57:18;29.13;;;18.93;;
15114;SDS011;7658;51.456;7.622;2023-04-08T01:59:49;32.93;;;20.63;;
15114;SDS011;7658;51.456;7.622;2023-04-08T02:02:17;40.67;;;21.33;;
15114;SDS011;7658;51.456;7.622;2023-04-08T02:04:45;27.37;;;20.50;;
15114;SDS011;7658;51.456;7.622;2023-04-08T02:07:11;34.47;;;20.30;;
15114;SDS011;7658;51.456;7.622;2023-04-08T02:09:37;36.47;;;19.93;;
15114;SDS011;7658;51.456;7.622;2023-04-08T02:12:03;37.17;;;20.83;;
15114;SDS011;7658;51.456;7.622;2023-04-08T02:14:29;42.67;;;20.87;;
15114;SDS011;7658;51.456;7.622;2023-04-08T02:16:58;40.80;;;20.83;;
15114;SDS011;7658;51.456;7.622;2023-04-08T02:20:13;42.90;;;20.43;;
15114;SDS011;7658;51.456;7.622;2023-04-08T02:22:38;44.97;;;21.27;;
15114;SDS011;7658;51.456;7.622;2023-04-08T02:25:12;74.87;;;25.13;;
15114;SDS011;7658;51.456;7.622;2023-04-08T02:27:40;46.23;;;21.93;;
15114;SDS011;7658;51.456;7.622;2023-04-08T02:30:07;55.00;;;22.40;;
15114;SDS011;7658;51.456;7.622;2023-04-08T02:32:35;53.33;;;23.13;;
15114;SDS011;7658;51.456;7.622;2023-04-08T02:35:01;54.63;;;21.83;;
15114;SDS011;7658;51.456;7.622;2023-04-08T02:37:29;30.43;;;21.37;;
15114;SDS011;7658;51.456;7.622;2023-04-08T02:39:55;123.13;;;29.77;;
15114;SDS011;7658;51.456;7.622;2023-04-08T02:42:21;104.23;;;27.43;;
15114;SDS011;7658;51.456;7.622;2023-04-08T02:44:46;74.20;;;26.57;;
15114;SDS011;7658;51.456;7.622;2023-04-08T02:47:12;32.70;;;22.60;;
15114;SDS011;7658;51.456;7.622;2023-04-08T02:49:38;101.80;;;27.70;;
15114;SDS011;7658;51.456;7.622;2023-04-08T02:52:04;81.77;;;27.77;;
15114;SDS011;7658;51.456;7.622;2023-04-08T02:54:30;32.03;;;22.60;;
15114;SDS011;7658;51.456;7.622;2023-04-08T02:56:56;41.63;;;23.60;;
15114;SDS011;7658;51.456;7.622;2023-04-08T02:59:22;43.00;;;25.10;;
15114;SDS011;7658;51.456;7.622;2023-04-08T03:01:47;44.47;;;24.03;;
15114;SDS011;7658;51.456;7.622;2023-04-08T03:04:13;77.83;;;27.20;;
15114;SDS011;7658;51.456;7.622;2023-04-08T03:06:39;48.87;;;24.93;;
15114;SDS011;7658;51.456;7.622;2023-04-08T03:09:05;88.13;;;29.23;;
15114;SDS011;7658;51.456;7.622;2023-04-08T03:11:31;38.60;;;23.00;;
15114;SDS011;7658;51.456;7.622;2023-04-08T03:13:57;60.87;;;25.67;;
15114;SDS011;7658;51.456;7.622;2023-04-08T03:16:22;86.87;;;27.87;;
15114;SDS011;7658;51.456;7.622;2023-04-08T03:18:49;65.47;;;24.87;;
15114;SDS011;7658;51.456;7.622;2023-04-08T03:21:17;72.83;;;27.10;;
15114;SDS011;7658;51.456;7.622;2023-04-08T03:23:43;54.90;;;25.00;;
15114;SDS011;7658;51.456;7.622;2023-04-08T03:26:09;32.40;;;22.37;;
15114;SDS011;7658;51.456;7.622;2023-04-08T03:28:35;50.63;;;25.13;;
15114;SDS011;7658;51.456;7.622;2023-04-08T03:31:02;92.50;;;27.73;;
15114;SDS011;7658;51.456;7.622;2023-04-08T03:33:28;164.90;;;32.97;;
15114;SDS011;7658;51.456;7.622;2023-04-08T03:35:54;88.03;;;29.17;;
15114;SDS011;7658;51.456;7.622;2023-04-08T03:38:20;64.93;;;27.37;;
15114;SDS011;7658;51.456;7.622;2023-04-08T03:40:45;71.73;;;26.87;;
15114;SDS011;7658;51.456;7.622;2023-04-08T03:43:12;117.80;;;32.97;;
15114;SDS011;7658;51.456;7.622;2023-04-08T03:45:38;64.43;;;27.23;;
15114;SDS011;7658;51.456;7.622;2023-04-08T03:48:03;111.27;;;31.50;;
15114;SDS011;7658;51.456;7.622;2023-04-08T03:50:29;79.47;;;30.17;;
15114;SDS011;7658;51.456;7.622;2023-04-08T03:52:55;100.80;;;31.57;;
15114;SDS011;7658;51.456;7.622;2023-04-08T03:55:21;70.80;;;30.73;;
15114;SDS011;7658;51.456;7.622;2023-04-08T03:57:47;76.33;;;30.83;;
15114;SDS011;7658;51.456;7.622;2023-04-08T04:00:13;62.10;;;28.73;;
15114;SDS011;7658;51.456;7.622;2023-04-08T04:02:39;101.87;;;32.20;;
15114;SDS011;7658;51.456;7.622;2023-04-08T04:05:05;113.43;;;33.03;;
15114;SDS011;7658;51.456;7.622;2023-04-08T04:07:31;119.67;;;32.90;;
15114;SDS011;7658;51.456;7.622;2023-04-08T04:09:56;65.17;;;29.40;;
15114;SDS011;7658;51.456;7.622;2023-04-08T04:12:22;117.23;;;34.33;;
15114;SDS011;7658;51.456;7.622;2023-04-08T04:14:48;108.83;;;32.00;;
15114;SDS011;7658;51.456;7.622;2023-04-08T04:17:14;124.23;;;33.97;;
15114;SDS011;7658;51.456;7.622;2023-04-08T04:19:40;121.73;;;31.33;;
15114;SDS011;7658;51.456;7.622;2023-04-08T04:22:06;48.10;;;25.43;;
15114;SDS011;7658;51.456;7.622;2023-04-08T04:24:31;36.50;;;23.13;;
15114;SDS011;7658;51.456;7.622;2023-04-08T04:26:57;50.77;;;25.53;;
15114;SDS011;7658;51.456;7.622;2023-04-08T04:29:23;46.00;;;26.40;;
15114;SDS011;7658;51.456;7.622;2023-04-08T04:31:49;81.87;;;27.57;;
15114;SDS011;7658;51.456;7.622;2023-04-08T04:34:14;110.03;;;30.80;;
15114;SDS011;7658;51.456;7.622;2023-04-08T04:36:40;50.63;;;24.20;;
15114;SDS011;7658;51.456;7.622;2023-04-08T04:39:06;77.20;;;26.67;;
15114;SDS011;7658;51.456;7.622;2023-04-08T04:41:31;104.37;;;29.10;;
15114;SDS011;7658;51.456;7.622;2023-04-08T04:43:59;98.10;;;30.37;;
15114;SDS011;7658;51.456;7.622;2023-04-08T04:46:25;100.77;;;31.60;;
15114;SDS011;7658;51.456;7.622;2023-04-08T04:48:51;60.50;;;24.50;;
15114;SDS011;7658;51.456;7.622;2023-04-08T04:51:17;85.67;;;27.43;;
15114;SDS011;7658;51.456;7.622;2023-04-08T04:53:42;95.50;;;28.20;;
15114;SDS011;7658;51.456;7.622;2023-04-08T04:56:08;72.40;;;28.97;;
15114;SDS011;7658;51.456;7.622;2023-04-08T04:58:34;78.63;;;26.80;;
15114;SDS011;7658;51.456;7.622;2023-04-08T05:01:00;62.70;;;27.40;;
15114;SDS011;7658;51.456;7.622;2023-04-08T05:03:27;78.40;;;27.30;;
15114;SDS011;7658;51.456;7.622;2023-04-08T05:05:53;93.67;;;26.63;;
15114;SDS011;7658;51.456;7.622;2023-04-08T05:08:19;75.27;;;28.07;;
15114;SDS011;7658;51.456;7.622;2023-04-08T05:10:45;93.13;;;29.50;;
15114;SDS011;7658;51.456;7.622;2023-04-08T05:13:14;94.30;;;29.50;;
15114;SDS011;7658;51.456;7.622;2023-04-08T05:15:39;86.33;;;30.27;;
15114;SDS011;7658;51.456;7.622;2023-04-08T05:18:05;100.70;;;29.60;;
15114;SDS011;7658;51.456;7.622;2023-04-08T05:20:31;98.80;;;30.80;;
15114;SDS011;7658;51.456;7.622;2023-04-08T05:22:57;89.60;;;28.77;;
15114;SDS011;7658;51.456;7.622;2023-04-08T05:25:22;106.33;;;31.10;;
15114;SDS011;7658;51.456;7.622;2023-04-08T05:27:48;120.53;;;31.17;;
15114;SDS011;7658;51.456;7.622;2023-04-08T05:30:14;119.80;;;30.17;;
15114;SDS011;7658;51.456;7.622;2023-04-08T05:32:40;117.93;;;30.50;;
15114;SDS011;7658;51.456;7.622;2023-04-08T05:35:06;94.43;;;27.90;;
15114;SDS011;7658;51.456;7.622;2023-04-08T05:37:32;81.93;;;28.47;;
15114;SDS011;7658;51.456;7.622;2023-04-08T05:39:57;115.93;;;33.50;;
15114;SDS011;7658;51.456;7.622;2023-04-08T05:42:23;104.60;;;29.77;;
15114;SDS011;7658;51.456;7.622;2023-04-08T05:44:49;77.40;;;27.97;;
15114;SDS011;7658;51.456;7.622;2023-04-08T05:47:14;78.00;;;29.13;;
15114;SDS011;7658;51.456;7.622;2023-04-08T05:49:40;109.70;;;30.63;;
15114;SDS011;7658;51.456;7.622;2023-04-08T05:52:06;76.93;;;28.70;;
15114;SDS011;7658;51.456;7.622;2023-04-08T05:54:31;95.40;;;29.97;;
15114;SDS011;7658;51.456;7.622;2023-04-08T05:56:57;62.60;;;26.37;;
15114;SDS011;7658;51.456;7.622;2023-04-08T05:59:23;59.47;;;25.60;;
15114;SDS011;7658;51.456;7.622;2023-04-08T06:01:49;93.13;;;30.47;;
15114;SDS011;7658;51.456;7.622;2023-04-08T06:04:15;80.87;;;28.27;;
15114;SDS011;7658;51.456;7.622;2023-04-08T06:06:41;74.80;;;28.37;;
15114;SDS011;7658;51.456;7.622;2023-04-08T06:09:07;67.47;;;27.40;;
15114;SDS011;7658;51.456;7.622;2023-04-08T06:11:36;66.50;;;25.20;;
15114;SDS011;7658;51.456;7.622;2023-04-08T06:14:02;91.13;;;28.93;;
15114;SDS011;7658;51.456;7.622;2023-04-08T06:16:28;104.23;;;31.87;;
15114;SDS011;7658;51.456;7.622;2023-04-08T06:18:53;74.60;;;28.57;;
15114;SDS011;7658;51.456;7.622;2023-04-08T06:21:19;64.63;;;25.20;;
15114;SDS011;7658;51.456;7.622;2023-04-08T06:23:45;64.03;;;25.87;;
15114;SDS011;7658;51.456;7.622;2023-04-08T06:26:11;71.67;;;29.27;;
15114;SDS011;7658;51.456;7.622;2023-04-08T06:28:37;67.00;;;29.57;;
15114;SDS011;7658;51.456;7.622;2023-04-08T06:31:03;76.13;;;29.50;;
15114;SDS011;7658;51.456;7.622;2023-04-08T06:33:29;56.27;;;25.67;;
15114;SDS011;7658;51.456;7.622;2023-04-08T06:36:04;60.53;;;27.47;;
15114;SDS011;7658;51.456;7.622;2023-04-08T06:38:31;74.37;;;28.80;;
15114;SDS011;7658;51.456;7.622;2023-04-08T06:41:01;72.47;;;29.90;;
15114;SDS011;7658;51.456;7.622;2023-04-08T06:43:27;74.90;;;32.37;;
15114;SDS011;7658;51.456;7.622;2023-04-08T06:45:54;78.23;;;33.67;;
15114;SDS011;7658;51.456;7.622;2023-04-08T06:48:20;71.57;;;34.03;;
15114;SDS011;7658;51.456;7.622;2023-04-08T06:50:47;72.63;;;32.53;;
15114;SDS011;7658;51.456;7.622;2023-04-08T06:53:13;63.77;;;31.37;;
15114;SDS011;7658;51.456;7.622;2023-04-08T06:55:39;65.13;;;30.73;;
15114;SDS011;7658;51.456;7.622;2023-04-08T06:58:05;68.50;;;31.50;;
15114;SDS011;7658;51.456;7.622;2023-04-08T07:00:31;75.60;;;34.77;;
15114;SDS011;7658;51.456;7.622;2023-04-08T07:02:56;58.80;;;30.07;;
15114;SDS011;7658;51.456;7.622;2023-04-08T07:05:22;58.93;;;30.00;;
15114;SDS011;7658;51.456;7.622;2023-04-08T07:07:48;77.10;;;35.30;;
15114;SDS011;7658;51.456;7.622;2023-04-08T07:10:13;64.90;;;29.73;;
15114;SDS011;7658;51.456;7.622;2023-04-08T07:12:39;64.10;;;32.47;;
15114;SDS011;7658;51.456;7.622;2023-04-08T07:15:05;59.33;;;31.10;;
15114;SDS011;7658;51.456;7.622;2023-04-08T07:17:31;67.13;;;34.73;;
15114;SDS011;7658;51.456;7.622;2023-04-08T07:19:58;62.43;;;34.70;;
15114;SDS011;7658;51.456;7.622;2023-04-08T07:22:23;61.07;;;33.87;;
15114;SDS011;7658;51.456;7.622;2023-04-08T07:24:49;55.43;;;34.30;;
15114;SDS011;7658;51.456;7.622;2023-04-08T07:27:16;52.97;;;32.00;;
15114;SDS011;7658;51.456;7.622;2023-04-08T07:29:41;53.57;;;33.40;;
15114;SDS011;7658;51.456;7.622;2023-04-08T07:32:07;52.30;;;33.07;;
15114;SDS011;7658;51.456;7.622;2023-04-08T07:34:33;55.93;;;34.70;;
15114;SDS011;7658;51.456;7.622;2023-04-08T07:37:00;50.00;;;32.83;;
15114;SDS011;7658;51.456;7.622;2023-04-08T07:39:26;50.63;;;33.97;;
15114;SDS011;7658;51.456;7.622;2023-04-08T07:41:52;47.80;;;33.67;;
15114;SDS011;7658;51.456;7.622;2023-04-08T07:44:18;42.57;;;30.83;;
15114;SDS011;7658;51.456;7.622;2023-04-08T07:46:44;49.23;;;32.10;;
15114;SDS011;7658;51.456;7.622;2023-04-08T07:49:10;41.90;;;28.27;;
15114;SDS011;7658;51.456;7.622;2023-04-08T07:51:36;36.40;;;25.73;;
15114;SDS011;7658;51.456;7.622;2023-04-08T07:54:02;31.63;;;24.30;;
15114;SDS011;7658;51.456;7.622;2023-04-08T07:56:28;32.23;;;24.00;;
15114;SDS011;7658;51.456;7.622;2023-04-08T07:58:54;29.73;;;22.60;;
15114;SDS011;7658;51.456;7.622;2023-04-08T08:01:20;27.00;;;22.67;;
15114;SDS011;7658;51.456;7.622;2023-04-08T08:03:47;29.40;;;21.73;;
15114;SDS011;7658;51.456;7.622;2023-04-08T08:06:14;29.33;;;22.43;;
15114;SDS011;7658;51.456;7.622;2023-04-08T08:08:40;26.93;;;20.30;;
15114;SDS011;7658;51.456;7.622;2023-04-08T08:11:06;31.87;;;23.30;;
15114;SDS011;7658;51.456;7.622;2023-04-08T08:13:32;26.23;;;20.00;;
15114;SDS011;7658;51.456;7.622;2023-04-08T08:15:58;28.50;;;21.83;;
15114;SDS011;7658;51.456;7.622;2023-04-08T08:18:24;28.87;;;21.80;;
15114;SDS011;7658;51.456;7.622;2023-04-08T08:20:49;27.30;;;20.77;;
15114;SDS011;7658;51.456;7.622;2023-04-08T08:23:16;30.33;;;21.60;;
15114;SDS011;7658;51.456;7.622;2023-04-08T08:25:42;26.57;;;21.77;;
15114;SDS011;7658;51.456;7.622;2023-04-08T08:28:07;23.83;;;19.53;;
15114;SDS011;7658;51.456;7.622;2023-04-08T08:30:33;27.27;;;20.43;;
15114;SDS011;7658;51.456;7.622;2023-04-08T08:32:59;26.83;;;20.53;;
15114;SDS011;7658;51.456;7.622;2023-04-08T08:35:25;27.30;;;21.10;;
15114;SDS011;7658;51.456;7.622;2023-04-08T08:37:51;27.23;;;19.97;;
15114;SDS011;7658;51.456;7.622;2023-04-08T08:40:17;29.17;;;21.93;;
15114;SDS011;7658;51.456;7.622;2023-04-08T08:42:52;32.53;;;21.57;;
15114;SDS011;7658;51.456;7.622;2023-04-08T08:45:20;27.17;;;21.10;;
15114;SDS011;7658;51.456;7.622;2023-04-08T08:47:46;28.57;;;21.43;;
15114;SDS011;7658;51.456;7.622;2023-04-08T08:50:12;27.67;;;21.70;;
15114;SDS011;7658;51.456;7.622;2023-04-08T08:52:37;26.17;;;19.70;;
15114;SDS011;7658;51.456;7.622;2023-04-08T08:55:03;26.57;;;21.27;;
15114;SDS011;7658;51.456;7.622;2023-04-08T08:57:29;27.30;;;21.00;;
15114;SDS011;7658;51.456;7.622;2023-04-08T08:59:55;26.90;;;21.30;;
15114;SDS011;7658;51.456;7.622;2023-04-08T09:02:30;23.93;;;19.80;;
15114;SDS011;7658;51.456;7.622;2023-04-08T09:05:00;23.97;;;19.67;;
15114;SDS011;7658;51.456;7.622;2023-04-08T09:07:28;23.37;;;18.70;;
15114;SDS011;7658;51.456;7.622;2023-04-08T09:09:56;24.33;;;19.87;;
15114;SDS011;7658;51.456;7.622;2023-04-08T09:12:23;25.07;;;19.57;;
15114;SDS011;7658;51.456;7.622;2023-04-08T09:14:50;23.20;;;17.47;;
15114;SDS011;7658;51.456;7.622;2023-04-08T09:17:33;22.50;;;18.00;;
15114;SDS011;7658;51.456;7.622;2023-04-08T09:20:10;24.40;;;18.53;;
15114;SDS011;7658;51.456;7.622;2023-04-08T09:25:32;19.63;;;16.23;;
15114;SDS011;7658;51.456;7.622;2023-04-08T09:27:58;21.23;;;16.63;;
15114;SDS011;7658;51.456;7.622;2023-04-08T09:30:26;20.30;;;15.83;;
15114;SDS011;7658;51.456;7.622;2023-04-08T09:32:53;19.43;;;16.37;;
15114;SDS011;7658;51.456;7.622;2023-04-08T09:35:20;20.00;;;15.90;;
15114;SDS011;7658;51.456;7.622;2023-04-08T09:37:46;20.27;;;17.00;;
15114;SDS011;7658;51.456;7.622;2023-04-08T09:40:12;20.43;;;17.07;;
15114;SDS011;7658;51.456;7.622;2023-04-08T09:42:45;16.87;;;14.93;;
15114;SDS011;7658;51.456;7.622;2023-04-08T09:45:15;17.67;;;15.37;;
15114;SDS011;7658;51.456;7.622;2023-04-08T09:50:26;20.33;;;17.27;;
15114;SDS011;7658;51.456;7.622;2023-04-08T09:53:00;21.57;;;16.07;;
15114;SDS011;7658;51.456;7.622;2023-04-08T09:55:52;19.53;;;16.17;;
15114;SDS011;7658;51.456;7.622;2023-04-08T09:58:21;20.80;;;16.00;;
15114;SDS011;7658;51.456;7.622;2023-04-08T10:00:53;19.87;;;16.23;;
15114;SDS011;7658;51.456;7.622;2023-04-08T10:03:26;20.20;;;15.57;;
15114;SDS011;7658;51.456;7.622;2023-04-08T10:05:57;17.43;;;15.10;;
15114;SDS011;7658;51.456;7.622;2023-04-08T10:08:26;19.33;;;14.87;;
15114;SDS011;7658;51.456;7.622;2023-04-08T10:10:52;16.77;;;14.50;;
15114;SDS011;7658;51.456;7.622;2023-04-08T10:13:20;16.27;;;13.37;;
15114;SDS011;7658;51.456;7.622;2023-04-08T10:15:46;16.73;;;14.23;;
15114;SDS011;7658;51.456;7.622;2023-04-08T10:23:05;17.07;;;14.10;;
15114;SDS011;7658;51.456;7.622;2023-04-08T10:25:39;16.40;;;13.23;;
15114;SDS011;7658;51.456;7.622;2023-04-08T10:33:15;18.00;;;13.10;;
15114;SDS011;7658;51.456;7.622;2023-04-08T10:36:27;15.00;;;12.10;;
15114;SDS011;7658;51.456;7.622;2023-04-08T10:38:30;16.13;;;13.17;;
15114;SDS011;7658;51.456;7.622;2023-04-08T10:40:56;15.40;;;12.80;;
15114;SDS011;7658;51.456;7.622;2023-04-08T10:43:22;17.30;;;12.77;;
15114;SDS011;7658;51.456;7.622;2023-04-08T10:45:48;16.33;;;13.20;;
15114;SDS011;7658;51.456;7.622;2023-04-08T10:48:20;15.90;;;13.23;;
15114;SDS011;7658;51.456;7.622;2023-04-08T10:50:55;17.25;;;13.30;;
15114;SDS011;7658;51.456;7.622;2023-04-08T10:55:54;16.45;;;13.57;;
15114;SDS011;7658;51.456;7.622;2023-04-08T10:58:27;16.10;;;13.20;;
15114;SDS011;7658;51.456;7.622;2023-04-08T11:00:54;17.00;;;12.82;;
15114;SDS011;7658;51.456;7.622;2023-04-08T11:03:20;16.42;;;13.15;;
15114;SDS011;7658;51.456;7.622;2023-04-08T11:05:46;15.15;;;12.60;;
15114;SDS011;7658;51.456;7.622;2023-04-08T11:08:14;16.95;;;13.73;;
15114;SDS011;7658;51.456;7.622;2023-04-08T11:10:39;19.85;;;13.85;;
15114;SDS011;7658;51.456;7.622;2023-04-08T11:13:07;17.60;;;14.00;;
15114;SDS011;7658;51.456;7.622;2023-04-08T11:15:36;16.08;;;13.40;;
15114;SDS011;7658;51.456;7.622;2023-04-08T11:18:03;16.88;;;13.57;;
15114;SDS011;7658;51.456;7.622;2023-04-08T11:20:30;15.98;;;12.98;;
15114;SDS011;7658;51.456;7.622;2023-04-08T11:23:00;18.00;;;13.30;;
15114;SDS011;7658;51.456;7.622;2023-04-08T11:25:26;17.13;;;13.88;;
15114;SDS011;7658;51.456;7.622;2023-04-08T11:27:52;18.20;;;14.10;;
15114;SDS011;7658;51.456;7.622;2023-04-08T11:30:18;16.85;;;13.98;;
15114;SDS011;7658;51.456;7.622;2023-04-08T11:32:44;17.90;;;15.17;;
15114;SDS011;7658;51.456;7.622;2023-04-08T11:35:10;18.70;;;14.75;;
15114;SDS011;7658;51.456;7.622;2023-04-08T11:37:39;21.35;;;15.88;;
15114;SDS011;7658;51.456;7.622;2023-04-08T11:40:09;19.13;;;15.82;;
15114;SDS011;7658;51.456;7.622;2023-04-08T11:42:36;19.35;;;15.23;;
15114;SDS011;7658;51.456;7.622;2023-04-08T11:45:13;20.93;;;17.10;;
15114;SDS011;7658;51.456;7.622;2023-04-08T11:47:40;21.45;;;16.58;;
15114;SDS011;7658;51.456;7.622;2023-04-08T11:50:07;23.13;;;17.70;;
15114;SDS011;7658;51.456;7.622;2023-04-08T11:55:07;24.27;;;18.33;;
15114;SDS011;7658;51.456;7.622;2023-04-08T11:57:36;25.27;;;18.67;;
15114;SDS011;7658;51.456;7.622;2023-04-08T12:00:04;24.90;;;18.60;;
15114;SDS011;7658;51.456;7.622;2023-04-08T12:02:31;24.83;;;19.63;;
15114;SDS011;7658;51.456;7.622;2023-04-08T12:04:56;25.17;;;19.50;;
15114;SDS011;7658;51.456;7.622;2023-04-08T12:07:22;23.27;;;19.20;;
15114;SDS011;7658;51.456;7.622;2023-04-08T12:09:48;23.67;;;18.17;;
15114;SDS011;7658;51.456;7.622;2023-04-08T12:12:13;25.55;;;18.55;;
15114;SDS011;7658;51.456;7.622;2023-04-08T12:14:39;25.35;;;18.77;;
15114;SDS011;7658;51.456;7.622;2023-04-08T12:17:05;21.00;;;17.75;;
15114;SDS011;7658;51.456;7.622;2023-04-08T12:19:31;22.13;;;18.13;;
15114;SDS011;7658;51.456;7.622;2023-04-08T12:21:56;23.73;;;18.15;;
15114;SDS011;7658;51.456;7.622;2023-04-08T12:24:22;21.40;;;17.60;;
15114;SDS011;7658;51.456;7.622;2023-04-08T12:26:48;22.33;;;17.73;;
15114;SDS011;7658;51.456;7.622;2023-04-08T12:29:14;22.40;;;18.35;;
15114;SDS011;7658;51.456;7.622;2023-04-08T12:31:40;19.20;;;16.48;;
15114;SDS011;7658;51.456;7.622;2023-04-08T12:34:08;22.07;;;17.30;;
15114;SDS011;7658;51.456;7.622;2023-04-08T12:36:34;21.65;;;17.00;;
15114;SDS011;7658;51.456;7.622;2023-04-08T12:39:00;19.65;;;16.38;;
15114;SDS011;7658;51.456;7.622;2023-04-08T12:41:25;20.58;;;16.40;;
15114;SDS011;7658;51.456;7.622;2023-04-08T12:43:51;22.45;;;17.40;;
15114;SDS011;7658;51.456;7.622;2023-04-08T12:46:17;20.63;;;16.45;;
15114;SDS011;7658;51.456;7.622;2023-04-08T12:48:43;21.33;;;17.50;;
15114;SDS011;7658;51.456;7.622;2023-04-08T12:51:09;22.58;;;16.50;;
15114;SDS011;7658;51.456;7.622;2023-04-08T12:53:36;19.30;;;15.93;;
15114;SDS011;7658;51.456;7.622;2023-04-08T12:56:01;21.30;;;16.02;;
15114;SDS011;7658;51.456;7.622;2023-04-08T12:58:27;20.77;;;16.60;;
15114;SDS011;7658;51.456;7.622;2023-04-08T13:00:53;19.98;;;16.70;;
15114;SDS011;7658;51.456;7.622;2023-04-08T13:03:18;20.23;;;16.55;;
15114;SDS011;7658;51.456;7.622;2023-04-08T13:05:44;20.33;;;15.88;;
15114;SDS011;7658;51.456;7.622;2023-04-08T13:08:10;22.75;;;15.98;;
15114;SDS011;7658;51.456;7.622;2023-04-08T13:10:36;20.27;;;16.13;;
15114;SDS011;7658;51.456;7.622;2023-04-08T13:13:02;19.00;;;15.47;;
15114;SDS011;7658;51.456;7.622;2023-04-08T13:15:28;19.23;;;15.65;;
15114;SDS011;7658;51.456;7.622;2023-04-08T13:17:53;22.42;;;15.65;;
15114;SDS011;7658;51.456;7.622;2023-04-08T13:20:19;17.57;;;15.20;;
15114;SDS011;7658;51.456;7.622;2023-04-08T13:22:50;18.98;;;15.40;;
15114;SDS011;7658;51.456;7.622;2023-04-08T13:25:16;18.40;;;14.93;;
15114;SDS011;7658;51.456;7.622;2023-04-08T13:27:42;18.17;;;14.45;;
15114;SDS011;7658;51.456;7.622;2023-04-08T13:30:10;19.25;;;14.55;;
15114;SDS011;7658;51.456;7.622;2023-04-08T13:32:45;18.23;;;14.57;;
15114;SDS011;7658;51.456;7.622;2023-04-08T13:35:11;18.70;;;13.90;;
15114;SDS011;7658;51.456;7.622;2023-04-08T13:37:37;20.47;;;13.43;;
15114;SDS011;7658;51.456;7.622;2023-04-08T13:40:02;19.80;;;14.07;;
15114;SDS011;7658;51.456;7.622;2023-04-08T13:42:29;18.77;;;14.87;;
15114;SDS011;7658;51.456;7.622;2023-04-08T13:44:58;17.95;;;13.98;;
15114;SDS011;7658;51.456;7.622;2023-04-08T13:47:24;19.02;;;14.50;;
15114;SDS011;7658;51.456;7.622;2023-04-08T13:49:51;22.02;;;15.73;;
15114;SDS011;7658;51.456;7.622;2023-04-08T13:52:17;22.95;;;16.23;;
15114;SDS011;7658;51.456;7.622;2023-04-08T13:54:43;19.92;;;15.07;;
15114;SDS011;7658;51.456;7.622;2023-04-08T13:57:10;20.23;;;15.07;;
15114;SDS011;7658;51.456;7.622;2023-04-08T13:59:35;20.90;;;15.40;;
15114;SDS011;7658;51.456;7.622;2023-04-08T14:02:01;21.13;;;16.43;;
15114;SDS011;7658;51.456;7.622;2023-04-08T14:04:27;20.17;;;15.70;;
15114;SDS011;7658;51.456;7.622;2023-04-08T14:06:53;19.23;;;15.07;;
15114;SDS011;7658;51.456;7.622;2023-04-08T14:09:21;20.55;;;16.20;;
15114;SDS011;7658;51.456;7.622;2023-04-08T14:11:47;20.87;;;16.17;;
15114;SDS011;7658;51.456;7.622;2023-04-08T14:14:13;19.23;;;15.70;;
15114;SDS011;7658;51.456;7.622;2023-04-08T14:16:38;20.97;;;16.10;;
15114;SDS011;7658;51.456;7.622;2023-04-08T14:19:05;22.38;;;15.75;;
15114;SDS011;7658;51.456;7.622;2023-04-08T14:21:31;22.37;;;16.50;;
15114;SDS011;7658;51.456;7.622;2023-04-08T14:23:57;25.97;;;16.40;;
15114;SDS011;7658;51.456;7.622;2023-04-08T14:26:23;20.40;;;16.20;;
15114;SDS011;7658;51.456;7.622;2023-04-08T14:28:49;20.50;;;15.85;;
15114;SDS011;7658;51.456;7.622;2023-04-08T14:31:15;21.30;;;16.13;;
15114;SDS011;7658;51.456;7.622;2023-04-08T14:33:41;21.35;;;16.23;;
15114;SDS011;7658;51.456;7.622;2023-04-08T14:36:07;22.67;;;16.60;;
15114;SDS011;7658;51.456;7.622;2023-04-08T14:38:33;20.95;;;16.48;;
15114;SDS011;7658;51.456;7.622;2023-04-08T14:40:59;20.98;;;16.35;;
15114;SDS011;7658;51.456;7.622;2023-04-08T14:43:25;21.42;;;16.73;;
15114;SDS011;7658;51.456;7.622;2023-04-08T14:45:51;22.85;;;18.50;;
15114;SDS011;7658;51.456;7.622;2023-04-08T14:48:17;23.83;;;18.02;;
15114;SDS011;7658;51.456;7.622;2023-04-08T14:50:44;22.92;;;17.13;;
15114;SDS011;7658;51.456;7.622;2023-04-08T14:53:10;22.27;;;17.65;;
15114;SDS011;7658;51.456;7.622;2023-04-08T14:55:36;25.20;;;18.65;;
15114;SDS011;7658;51.456;7.622;2023-04-08T14:58:02;21.95;;;17.08;;